Portada
METAR-TAF:

METAR-TAF

Aeroports :

Acapulco, Mèxic

latitud: 16-46N, longitud: 099-45W, altitud: 5 m

Observació

L'informe es va fer fa 53 minuts, a les 07:49 UTC
Vent calma
Temperatura 22°C
Humitat 88%
Pressió 1013 hPa
Visibilitat: 8.0 km
Núvols disperses a una alçada de 30000 ft

METAR: MMAA 200749Z 00000KT 5SM SCT300 22/20 A2991 RMK 8/002 HZY

Hora: 02:42 (08:42 UTC)

Pronòstic

L'informe es va fer fa 4 hores i 24 minuts, a les 04:18 UTC
Pronòstic vàlid del 20 a les 06 UTC al 21 a les 12 UTC
Vent 5 kt del Nord/Nord-Oest
Visibilitat: 8.0 km
Núvols disperses a una alçada de 30000 ft
calitja
A partir de les 20 a les 1800 UTC
Vent 10 kt del Sud-Oest
Visibilitat: 9.7 km
Cel ennuvolat a una alçada de 30000 ft
calitja
A partir de les 21 a les 0500 UTC
Vent 5 kt del Nord/Nord-Est
Visibilitat: 9.7 km
Núvols disperses a una alçada de 30000 ft
calitja

TAF: MMAA 200418Z 2006/2112 34005KT 5SM HZ SCT300 TX30/2019Z TN22/2012Z FM201800 23010KT 6SM HZ BKN300 FM210500 03005KT 6SM HZ SCT300

Observacions i pronòstics meteorològics de més de 4000 aeroports (METAR i TAF).

Les estacions disponibles són els punts grocs i vermells al mapa.

Posi el ratolí al punt desitjat per veure el nom de l'estació.

Feu clic per veure les observacions i els pronòstics meteorològics.

Per canviar el mapa: feu clic els botons verds amb una creu de color negre per apropar; al botó verd amb un guió per allunyar la imatge; o en les fletxes verdes per a mapes adjacents.


METAR-TAF: